sensor_id;sensor_type;location;lat;lon;timestamp;pressure;altitude;pressure_sealevel;temperature;humidity
64614;BME280;51025;37.772;-122.432;2022-07-01T00:00:16;101173.92;;;20.23;31.34
64614;BME280;51025;37.772;-122.432;2022-07-01T00:02:45;101169.90;;;20.50;31.07
64614;BME280;51025;37.772;-122.432;2022-07-01T00:05:13;101175.80;;;20.22;31.37
64614;BME280;51025;37.772;-122.432;2022-07-01T00:07:42;101177.19;;;20.44;31.14
64614;BME280;51025;37.772;-122.432;2022-07-01T00:10:11;101171.50;;;20.36;31.22
64614;BME280;51025;37.772;-122.432;2022-07-01T00:12:40;101167.83;;;20.49;31.07
64614;BME280;51025;37.772;-122.432;2022-07-01T00:15:09;101170.98;;;21.11;31.22
64614;BME280;51025;37.772;-122.432;2022-07-01T00:17:37;101171.61;;;20.68;31.30
64614;BME280;51025;37.772;-122.432;2022-07-01T00:20:05;101166.70;;;20.54;30.96
64614;BME280;51025;37.772;-122.432;2022-07-01T00:22:35;101168.05;;;20.27;31.27
64614;BME280;51025;37.772;-122.432;2022-07-01T00:25:04;101167.94;;;20.75;31.20
64614;BME280;51025;37.772;-122.432;2022-07-01T00:27:33;101162.05;;;20.31;31.22
64614;BME280;51025;37.772;-122.432;2022-07-01T00:30:04;101171.57;;;20.28;31.27
64614;BME280;51025;37.772;-122.432;2022-07-01T00:32:33;101168.62;;;20.27;31.27
64614;BME280;51025;37.772;-122.432;2022-07-01T00:35:01;101170.75;;;20.51;31.05
64614;BME280;51025;37.772;-122.432;2022-07-01T00:37:30;101165.56;;;20.60;30.42
64614;BME280;51025;37.772;-122.432;2022-07-01T00:39:58;101153.35;;;20.51;30.47
64614;BME280;51025;37.772;-122.432;2022-07-01T00:42:26;101148.49;;;20.07;30.97
64614;BME280;51025;37.772;-122.432;2022-07-01T00:44:55;101144.98;;;20.04;31.14
64614;BME280;51025;37.772;-122.432;2022-07-01T00:47:24;101147.94;;;20.55;31.10
64614;BME280;51025;37.772;-122.432;2022-07-01T00:49:52;101130.98;;;20.50;31.14
64614;BME280;51025;37.772;-122.432;2022-07-01T00:52:21;101131.47;;;20.90;31.08
64614;BME280;51025;37.772;-122.432;2022-07-01T00:54:49;101122.46;;;20.13;31.11
64614;BME280;51025;37.772;-122.432;2022-07-01T00:57:18;101120.47;;;20.25;31.00
64614;BME280;51025;37.772;-122.432;2022-07-01T00:59:46;101125.15;;;20.24;31.08
64614;BME280;51025;37.772;-122.432;2022-07-01T01:02:14;101113.82;;;20.14;31.14
64614;BME280;51025;37.772;-122.432;2022-07-01T01:04:42;101116.47;;;20.21;31.09
64614;BME280;51025;37.772;-122.432;2022-07-01T01:07:10;101118.93;;;20.14;31.17
64614;BME280;51025;37.772;-122.432;2022-07-01T01:09:38;101119.59;;;20.23;31.11
64614;BME280;51025;37.772;-122.432;2022-07-01T01:12:07;101114.72;;;20.20;31.15
64614;BME280;51025;37.772;-122.432;2022-07-01T01:14:44;101113.54;;;20.13;31.25
64614;BME280;51025;37.772;-122.432;2022-07-01T01:17:13;101108.82;;;20.21;31.18
64614;BME280;51025;37.772;-122.432;2022-07-01T01:19:43;101105.20;;;20.39;30.75
64614;BME280;51025;37.772;-122.432;2022-07-01T01:22:15;101101.07;;;20.55;30.86
64614;BME280;51025;37.772;-122.432;2022-07-01T01:24:45;101108.92;;;19.87;31.00
64614;BME280;51025;37.772;-122.432;2022-07-01T01:27:14;101103.76;;;19.99;30.81
64614;BME280;51025;37.772;-122.432;2022-07-01T01:29:44;101104.90;;;20.04;30.75
64614;BME280;51025;37.772;-122.432;2022-07-01T01:32:13;101109.38;;;19.77;31.01
64614;BME280;51025;37.772;-122.432;2022-07-01T01:34:41;101104.10;;;19.81;31.02
64614;BME280;51025;37.772;-122.432;2022-07-01T01:37:09;101098.25;;;20.54;30.96
64614;BME280;51025;37.772;-122.432;2022-07-01T01:39:37;101098.35;;;20.00;31.15
64614;BME280;51025;37.772;-122.432;2022-07-01T01:42:06;101092.59;;;20.40;31.04
64614;BME280;51025;37.772;-122.432;2022-07-01T01:44:35;101099.12;;;19.51;31.12
64614;BME280;51025;37.772;-122.432;2022-07-01T01:47:04;101095.63;;;20.41;30.66
64614;BME280;51025;37.772;-122.432;2022-07-01T01:49:33;101093.88;;;19.91;31.19
64614;BME280;51025;37.772;-122.432;2022-07-01T01:52:02;101087.83;;;20.08;31.47
64614;BME280;51025;37.772;-122.432;2022-07-01T01:54:31;101096.16;;;19.30;31.53
64614;BME280;51025;37.772;-122.432;2022-07-01T01:56:59;101091.48;;;20.22;31.11
64614;BME280;51025;37.772;-122.432;2022-07-01T01:59:28;101105.64;;;19.80;31.57
64614;BME280;51025;37.772;-122.432;2022-07-01T02:01:56;101095.05;;;19.90;30.98
64614;BME280;51025;37.772;-122.432;2022-07-01T02:04:24;101121.27;;;20.27;31.41
64614;BME280;51025;37.772;-122.432;2022-07-01T02:06:54;101097.30;;;20.22;31.57
64614;BME280;51025;37.772;-122.432;2022-07-01T02:09:22;101093.76;;;19.59;31.88
64614;BME280;51025;37.772;-122.432;2022-07-01T02:11:51;101098.15;;;20.54;31.60
64614;BME280;51025;37.772;-122.432;2022-07-01T02:14:19;101094.46;;;20.13;31.55
64614;BME280;51025;37.772;-122.432;2022-07-01T02:16:47;101095.51;;;19.29;31.53
64614;BME280;51025;37.772;-122.432;2022-07-01T02:19:15;101084.35;;;19.87;31.70
64614;BME280;51025;37.772;-122.432;2022-07-01T02:21:44;101083.08;;;19.26;31.52
64614;BME280;51025;37.772;-122.432;2022-07-01T02:24:13;101085.15;;;19.45;31.47
64614;BME280;51025;37.772;-122.432;2022-07-01T02:26:41;101089.55;;;19.48;31.33
64614;BME280;51025;37.772;-122.432;2022-07-01T02:29:09;101091.25;;;19.91;30.90
64614;BME280;51025;37.772;-122.432;2022-07-01T02:31:38;101096.95;;;19.50;31.52
64614;BME280;51025;37.772;-122.432;2022-07-01T02:34:07;101094.71;;;19.45;31.50
64614;BME280;51025;37.772;-122.432;2022-07-01T02:36:35;101097.79;;;17.96;31.47
64614;BME280;51025;37.772;-122.432;2022-07-01T02:39:04;101095.79;;;19.68;31.24
64614;BME280;51025;37.772;-122.432;2022-07-01T02:41:33;101113.07;;;19.39;31.66
64614;BME280;51025;37.772;-122.432;2022-07-01T02:44:01;101112.75;;;20.54;31.23
64614;BME280;51025;37.772;-122.432;2022-07-01T02:46:29;101115.39;;;20.57;31.09
64614;BME280;51025;37.772;-122.432;2022-07-01T02:48:57;101115.25;;;19.26;31.51
64614;BME280;51025;37.772;-122.432;2022-07-01T02:51:25;101116.14;;;19.78;31.85
64614;BME280;51025;37.772;-122.432;2022-07-01T02:53:54;101128.02;;;19.84;31.69
64614;BME280;51025;37.772;-122.432;2022-07-01T02:56:23;101115.81;;;19.42;32.21
64614;BME280;51025;37.772;-122.432;2022-07-01T02:58:51;101121.63;;;19.59;32.02
64614;BME280;51025;37.772;-122.432;2022-07-01T03:01:20;101116.64;;;19.57;31.88
64614;BME280;51025;37.772;-122.432;2022-07-01T03:03:49;101124.29;;;19.86;32.23
64614;BME280;51025;37.772;-122.432;2022-07-01T03:06:17;101115.93;;;19.59;32.32
64614;BME280;51025;37.772;-122.432;2022-07-01T03:08:46;101108.87;;;19.39;32.85
64614;BME280;51025;37.772;-122.432;2022-07-01T03:11:14;101111.55;;;19.34;33.10
64614;BME280;51025;37.772;-122.432;2022-07-01T03:13:42;101116.99;;;19.58;33.47
64614;BME280;51025;37.772;-122.432;2022-07-01T03:16:11;101107.24;;;19.33;33.77
64614;BME280;51025;37.772;-122.432;2022-07-01T03:18:40;101117.44;;;19.30;34.06
64614;BME280;51025;37.772;-122.432;2022-07-01T03:21:09;101107.39;;;18.73;34.39
64614;BME280;51025;37.772;-122.432;2022-07-01T03:23:38;101107.66;;;19.34;34.15
64614;BME280;51025;37.772;-122.432;2022-07-01T03:26:06;101107.77;;;18.83;34.54
64614;BME280;51025;37.772;-122.432;2022-07-01T03:28:34;101106.11;;;19.09;34.23
64614;BME280;51025;37.772;-122.432;2022-07-01T03:31:02;101105.69;;;19.02;34.34
64614;BME280;51025;37.772;-122.432;2022-07-01T03:33:31;101105.87;;;19.33;34.74
64614;BME280;51025;37.772;-122.432;2022-07-01T03:36:00;101107.27;;;20.42;34.39
64614;BME280;51025;37.772;-122.432;2022-07-01T03:38:28;101100.70;;;19.79;35.00
64614;BME280;51025;37.772;-122.432;2022-07-01T03:40:56;101101.53;;;20.02;34.66
64614;BME280;51025;37.772;-122.432;2022-07-01T03:43:26;101094.30;;;19.91;34.80
64614;BME280;51025;37.772;-122.432;2022-07-01T03:45:54;101105.64;;;19.85;34.61
64614;BME280;51025;37.772;-122.432;2022-07-01T03:48:23;101106.19;;;19.89;34.37
64614;BME280;51025;37.772;-122.432;2022-07-01T03:50:51;101101.46;;;19.73;34.53
64614;BME280;51025;37.772;-122.432;2022-07-01T03:53:20;101105.43;;;20.71;33.21
64614;BME280;51025;37.772;-122.432;2022-07-01T03:55:48;101110.28;;;20.40;33.90
64614;BME280;51025;37.772;-122.432;2022-07-01T03:58:16;101102.35;;;21.11;33.21
64614;BME280;51025;37.772;-122.432;2022-07-01T04:00:44;101105.91;;;21.71;33.20
64614;BME280;51025;37.772;-122.432;2022-07-01T04:03:13;101108.63;;;21.15;33.52
64614;BME280;51025;37.772;-122.432;2022-07-01T04:05:42;101107.33;;;20.24;34.12
64614;BME280;51025;37.772;-122.432;2022-07-01T04:08:11;101112.91;;;20.87;33.79
64614;BME280;51025;37.772;-122.432;2022-07-01T04:10:39;101116.61;;;21.52;32.81
64614;BME280;51025;37.772;-122.432;2022-07-01T04:13:08;101113.72;;;22.00;32.74
64614;BME280;51025;37.772;-122.432;2022-07-01T04:15:36;101119.10;;;20.76;33.84
64614;BME280;51025;37.772;-122.432;2022-07-01T04:18:05;101124.88;;;19.76;34.65
64614;BME280;51025;37.772;-122.432;2022-07-01T04:20:33;101133.01;;;20.25;34.43
64614;BME280;51025;37.772;-122.432;2022-07-01T04:23:01;101129.00;;;20.02;34.07
64614;BME280;51025;37.772;-122.432;2022-07-01T04:25:30;101124.78;;;20.51;34.36
64614;BME280;51025;37.772;-122.432;2022-07-01T04:27:58;101123.39;;;20.49;33.55
64614;BME280;51025;37.772;-122.432;2022-07-01T04:30:27;101120.78;;;20.79;33.61
64614;BME280;51025;37.772;-122.432;2022-07-01T04:32:56;101125.82;;;20.00;34.17
64614;BME280;51025;37.772;-122.432;2022-07-01T04:35:25;101126.08;;;20.46;34.09
64614;BME280;51025;37.772;-122.432;2022-07-01T04:37:54;101126.14;;;19.84;34.65
64614;BME280;51025;37.772;-122.432;2022-07-01T04:40:23;101127.48;;;19.85;34.56
64614;BME280;51025;37.772;-122.432;2022-07-01T04:42:51;101128.22;;;20.26;34.01
64614;BME280;51025;37.772;-122.432;2022-07-01T04:45:19;101129.27;;;19.34;34.52
64614;BME280;51025;37.772;-122.432;2022-07-01T04:47:47;101130.24;;;19.92;34.19
64614;BME280;51025;37.772;-122.432;2022-07-01T04:50:16;101137.57;;;21.13;32.97
64614;BME280;51025;37.772;-122.432;2022-07-01T04:52:45;101142.47;;;19.47;34.24
64614;BME280;51025;37.772;-122.432;2022-07-01T04:55:13;101144.30;;;19.89;34.15
64614;BME280;51025;37.772;-122.432;2022-07-01T04:57:42;101153.39;;;20.05;33.81
64614;BME280;51025;37.772;-122.432;2022-07-01T05:00:11;101143.53;;;19.71;34.08
64614;BME280;51025;37.772;-122.432;2022-07-01T05:02:40;101143.97;;;19.62;33.76
64614;BME280;51025;37.772;-122.432;2022-07-01T05:05:08;101149.98;;;19.51;33.91
64614;BME280;51025;37.772;-122.432;2022-07-01T05:07:37;101147.72;;;19.57;34.08
64614;BME280;51025;37.772;-122.432;2022-07-01T05:10:05;101151.43;;;19.53;34.08
64614;BME280;51025;37.772;-122.432;2022-07-01T05:12:34;101147.13;;;19.56;34.02
64614;BME280;51025;37.772;-122.432;2022-07-01T05:15:02;101149.86;;;19.62;33.91
64614;BME280;51025;37.772;-122.432;2022-07-01T05:17:30;101151.28;;;19.57;33.95
64614;BME280;51025;37.772;-122.432;2022-07-01T05:19:59;101154.21;;;19.24;33.87
64614;BME280;51025;37.772;-122.432;2022-07-01T05:22:28;101149.82;;;19.60;33.81
64614;BME280;51025;37.772;-122.432;2022-07-01T05:24:56;101151.73;;;18.81;33.79
64614;BME280;51025;37.772;-122.432;2022-07-01T05:27:24;101147.74;;;19.16;33.87
64614;BME280;51025;37.772;-122.432;2022-07-01T05:29:52;101155.43;;;19.54;33.73
64614;BME280;51025;37.772;-122.432;2022-07-01T05:32:20;101155.23;;;19.18;33.70
64614;BME280;51025;37.772;-122.432;2022-07-01T05:34:49;101155.55;;;19.59;33.57
64614;BME280;51025;37.772;-122.432;2022-07-01T05:37:17;101158.65;;;20.22;32.92
64614;BME280;51025;37.772;-122.432;2022-07-01T05:39:45;101175.17;;;19.48;33.69
64614;BME280;51025;37.772;-122.432;2022-07-01T05:42:14;101173.91;;;19.45;33.68
64614;BME280;51025;37.772;-122.432;2022-07-01T05:44:43;101176.59;;;20.26;32.69
64614;BME280;51025;37.772;-122.432;2022-07-01T05:47:11;101172.57;;;19.67;33.01
64614;BME280;51025;37.772;-122.432;2022-07-01T05:49:39;101181.93;;;20.07;32.91
64614;BME280;51025;37.772;-122.432;2022-07-01T05:52:08;101174.75;;;19.50;33.43
64614;BME280;51025;37.772;-122.432;2022-07-01T05:54:36;101186.16;;;20.24;32.66
64614;BME280;51025;37.772;-122.432;2022-07-01T05:57:06;101184.96;;;19.21;33.35
64614;BME280;51025;37.772;-122.432;2022-07-01T05:59:34;101182.61;;;19.60;33.26
64614;BME280;51025;37.772;-122.432;2022-07-01T06:02:04;101186.60;;;19.91;32.87
64614;BME280;51025;37.772;-122.432;2022-07-01T06:04:32;101185.53;;;19.23;33.20
64614;BME280;51025;37.772;-122.432;2022-07-01T06:07:00;101182.58;;;18.78;33.19
64614;BME280;51025;37.772;-122.432;2022-07-01T06:09:29;101184.29;;;19.14;33.26
64614;BME280;51025;37.772;-122.432;2022-07-01T06:11:57;101187.31;;;19.50;33.25
64614;BME280;51025;37.772;-122.432;2022-07-01T06:14:24;101183.54;;;19.56;33.15
64614;BME280;51025;37.772;-122.432;2022-07-01T06:16:54;101178.95;;;19.17;33.09
64614;BME280;51025;37.772;-122.432;2022-07-01T06:19:22;101176.54;;;18.75;33.08
64614;BME280;51025;37.772;-122.432;2022-07-01T06:21:50;101181.11;;;19.48;33.11
64614;BME280;51025;37.772;-122.432;2022-07-01T06:24:18;101173.77;;;19.43;33.11
64614;BME280;51025;37.772;-122.432;2022-07-01T06:26:47;101178.13;;;19.35;33.20
64614;BME280;51025;37.772;-122.432;2022-07-01T06:29:15;101178.25;;;19.40;33.12
64614;BME280;51025;37.772;-122.432;2022-07-01T06:31:44;101174.39;;;19.51;32.97
64614;BME280;51025;37.772;-122.432;2022-07-01T06:34:12;101166.16;;;19.36;33.10
64614;BME280;51025;37.772;-122.432;2022-07-01T06:36:40;101169.94;;;19.69;32.74
64614;BME280;51025;37.772;-122.432;2022-07-01T06:39:08;101171.71;;;19.32;32.70
64614;BME280;51025;37.772;-122.432;2022-07-01T06:41:37;101171.21;;;19.00;33.07
64614;BME280;51025;37.772;-122.432;2022-07-01T06:44:05;101164.78;;;19.28;33.12
64614;BME280;51025;37.772;-122.432;2022-07-01T06:46:34;101164.98;;;19.68;32.58
64614;BME280;51025;37.772;-122.432;2022-07-01T06:49:02;101167.52;;;19.12;32.81
64614;BME280;51025;37.772;-122.432;2022-07-01T06:51:30;101164.41;;;18.89;33.04
64614;BME280;51025;37.772;-122.432;2022-07-01T06:53:58;101168.85;;;18.59;32.89
64614;BME280;51025;37.772;-122.432;2022-07-01T06:56:27;101174.70;;;19.64;32.95
64614;BME280;51025;37.772;-122.432;2022-07-01T06:58:56;101171.43;;;19.25;32.94
64614;BME280;51025;37.772;-122.432;2022-07-01T07:01:25;101165.57;;;18.48;32.94
64614;BME280;51025;37.772;-122.432;2022-07-01T07:03:54;101172.59;;;19.48;32.69
64614;BME280;51025;37.772;-122.432;2022-07-01T07:06:23;101169.55;;;19.41;32.75
64614;BME280;51025;37.772;-122.432;2022-07-01T07:08:51;101170.50;;;19.33;32.81
64614;BME280;51025;37.772;-122.432;2022-07-01T07:11:19;101169.00;;;19.21;32.92
64614;BME280;51025;37.772;-122.432;2022-07-01T07:13:48;101171.65;;;19.26;32.81
64614;BME280;51025;37.772;-122.432;2022-07-01T07:16:16;101172.43;;;19.15;32.92
64614;BME280;51025;37.772;-122.432;2022-07-01T07:18:44;101177.15;;;19.20;32.86
64614;BME280;51025;37.772;-122.432;2022-07-01T07:21:13;101171.30;;;19.17;32.85
64614;BME280;51025;37.772;-122.432;2022-07-01T07:23:42;101172.98;;;19.56;32.80
64614;BME280;51025;37.772;-122.432;2022-07-01T07:26:10;101167.28;;;19.35;32.95
64614;BME280;51025;37.772;-122.432;2022-07-01T07:28:39;101167.06;;;19.33;33.01
64614;BME280;51025;37.772;-122.432;2022-07-01T07:31:07;101169.40;;;19.04;32.90
64614;BME280;51025;37.772;-122.432;2022-07-01T07:33:36;101162.01;;;19.07;32.84
64614;BME280;51025;37.772;-122.432;2022-07-01T07:36:04;101156.85;;;19.38;32.88
64614;BME280;51025;37.772;-122.432;2022-07-01T07:38:33;101157.29;;;18.95;32.93
64614;BME280;51025;37.772;-122.432;2022-07-01T07:41:05;101154.62;;;18.66;32.82
64614;BME280;51025;37.772;-122.432;2022-07-01T07:43:33;101154.66;;;18.95;32.92
64614;BME280;51025;37.772;-122.432;2022-07-01T07:46:03;101154.18;;;18.98;32.85
64614;BME280;51025;37.772;-122.432;2022-07-01T07:48:32;101152.89;;;18.95;32.89
64614;BME280;51025;37.772;-122.432;2022-07-01T07:51:00;101158.44;;;18.98;32.82
64614;BME280;51025;37.772;-122.432;2022-07-01T07:53:28;101151.96;;;19.09;32.67
64614;BME280;51025;37.772;-122.432;2022-07-01T07:55:57;101147.76;;;18.94;32.81
64614;BME280;51025;37.772;-122.432;2022-07-01T07:58:25;101145.95;;;19.25;32.88
64614;BME280;51025;37.772;-122.432;2022-07-01T08:00:54;101149.29;;;18.90;32.91
64614;BME280;51025;37.772;-122.432;2022-07-01T08:03:22;101147.43;;;19.22;32.88
64614;BME280;51025;37.772;-122.432;2022-07-01T08:05:50;101150.28;;;19.18;32.92
64614;BME280;51025;37.772;-122.432;2022-07-01T08:08:19;101152.24;;;18.79;32.92
64614;BME280;51025;37.772;-122.432;2022-07-01T08:10:46;101156.04;;;19.12;32.88
64614;BME280;51025;37.772;-122.432;2022-07-01T08:13:15;101158.04;;;18.73;32.94
64614;BME280;51025;37.772;-122.432;2022-07-01T08:15:43;101153.41;;;19.16;32.81
64614;BME280;51025;37.772;-122.432;2022-07-01T08:18:11;101152.79;;;18.70;32.94
64614;BME280;51025;37.772;-122.432;2022-07-01T08:20:40;101156.98;;;19.09;32.88
64614;BME280;51025;37.772;-122.432;2022-07-01T08:23:09;101149.81;;;18.66;32.93
64614;BME280;51025;37.772;-122.432;2022-07-01T08:25:37;101144.29;;;19.07;32.84
64614;BME280;51025;37.772;-122.432;2022-07-01T08:28:06;101147.83;;;18.71;32.88
64614;BME280;51025;37.772;-122.432;2022-07-01T08:30:34;101150.19;;;18.97;32.91
64614;BME280;51025;37.772;-122.432;2022-07-01T08:33:02;101154.25;;;18.92;32.96
64614;BME280;51025;37.772;-122.432;2022-07-01T08:35:31;101154.22;;;18.59;32.91
64614;BME280;51025;37.772;-122.432;2022-07-01T08:38:00;101156.15;;;18.81;32.65
64614;BME280;51025;37.772;-122.432;2022-07-01T08:40:30;101148.77;;;18.91;32.91
64614;BME280;51025;37.772;-122.432;2022-07-01T08:43:00;101150.57;;;18.82;33.02
64614;BME280;51025;37.772;-122.432;2022-07-01T08:45:30;101154.77;;;18.86;32.96
64614;BME280;51025;37.772;-122.432;2022-07-01T08:48:00;101147.96;;;18.84;32.97
64614;BME280;51025;37.772;-122.432;2022-07-01T08:50:30;101143.40;;;18.81;32.96
64614;BME280;51025;37.772;-122.432;2022-07-01T08:52:59;101146.56;;;18.87;32.89
64614;BME280;51025;37.772;-122.432;2022-07-01T08:55:28;101147.77;;;19.23;32.93
64614;BME280;51025;37.772;-122.432;2022-07-01T08:57:57;101152.15;;;18.37;32.98
64614;BME280;51025;37.772;-122.432;2022-07-01T09:00:31;101149.43;;;18.74;32.93
64614;BME280;51025;37.772;-122.432;2022-07-01T09:03:01;101143.91;;;18.46;32.78
64614;BME280;51025;37.772;-122.432;2022-07-01T09:05:31;101135.62;;;19.04;32.60
64614;BME280;51025;37.772;-122.432;2022-07-01T09:08:01;101135.57;;;18.71;32.55
64614;BME280;51025;37.772;-122.432;2022-07-01T09:10:32;101130.61;;;18.70;32.52
64614;BME280;51025;37.772;-122.432;2022-07-01T09:13:04;101127.05;;;18.66;32.59
64614;BME280;51025;37.772;-122.432;2022-07-01T09:15:33;101128.42;;;18.35;32.51
64614;BME280;51025;37.772;-122.432;2022-07-01T09:18:05;101134.67;;;18.59;32.60
64614;BME280;51025;37.772;-122.432;2022-07-01T09:20:37;101134.71;;;18.73;32.42
64614;BME280;51025;37.772;-122.432;2022-07-01T09:23:07;101130.58;;;18.69;32.44
64614;BME280;51025;37.772;-122.432;2022-07-01T09:25:37;101125.84;;;18.76;32.36
64614;BME280;51025;37.772;-122.432;2022-07-01T09:28:08;101125.98;;;18.88;32.54
64614;BME280;51025;37.772;-122.432;2022-07-01T09:30:38;101124.84;;;18.50;32.59
64614;BME280;51025;37.772;-122.432;2022-07-01T09:33:09;101120.98;;;18.38;32.68
64614;BME280;51025;37.772;-122.432;2022-07-01T09:35:38;101117.34;;;18.76;32.70
64614;BME280;51025;37.772;-122.432;2022-07-01T09:38:09;101122.40;;;18.33;32.75
64614;BME280;51025;37.772;-122.432;2022-07-01T09:40:48;101123.27;;;18.65;32.76
64614;BME280;51025;37.772;-122.432;2022-07-01T09:43:19;101125.96;;;18.58;32.82
64614;BME280;51025;37.772;-122.432;2022-07-01T09:45:55;101121.91;;;18.66;32.76
64614;BME280;51025;37.772;-122.432;2022-07-01T09:48:25;101123.77;;;19.02;32.77
64614;BME280;51025;37.772;-122.432;2022-07-01T09:50:55;101127.21;;;18.96;32.80
64614;BME280;51025;37.772;-122.432;2022-07-01T09:53:23;101123.52;;;18.86;32.86
64614;BME280;51025;37.772;-122.432;2022-07-01T09:55:52;101121.54;;;18.99;32.76
64614;BME280;51025;37.772;-122.432;2022-07-01T09:58:21;101124.55;;;18.87;32.79
64614;BME280;51025;37.772;-122.432;2022-07-01T10:00:53;101126.40;;;18.37;32.92
64614;BME280;51025;37.772;-122.432;2022-07-01T10:03:22;101128.79;;;18.37;32.89
64614;BME280;51025;37.772;-122.432;2022-07-01T10:05:54;101128.61;;;18.43;32.80
64614;BME280;51025;37.772;-122.432;2022-07-01T10:08:40;101133.84;;;18.34;32.90
64614;BME280;51025;37.772;-122.432;2022-07-01T10:11:36;101142.07;;;18.46;32.74
64614;BME280;51025;37.772;-122.432;2022-07-01T10:14:12;101140.10;;;18.38;32.87
64614;BME280;51025;37.772;-122.432;2022-07-01T10:16:42;101138.45;;;18.81;32.74
64614;BME280;51025;37.772;-122.432;2022-07-01T10:19:30;101140.73;;;18.32;32.81
64614;BME280;51025;37.772;-122.432;2022-07-01T10:24:51;101139.90;;;18.77;32.77
64614;BME280;51025;37.772;-122.432;2022-07-01T10:27:21;101142.05;;;18.78;32.81
64614;BME280;51025;37.772;-122.432;2022-07-01T10:29:51;101141.72;;;18.77;32.76
64614;BME280;51025;37.772;-122.432;2022-07-01T10:32:46;101142.56;;;18.69;32.81
64614;BME280;51025;37.772;-122.432;2022-07-01T10:35:15;101140.67;;;18.25;32.81
64614;BME280;51025;37.772;-122.432;2022-07-01T10:37:58;101142.74;;;18.24;32.84
64614;BME280;51025;37.772;-122.432;2022-07-01T10:40:42;101141.30;;;18.36;32.69
64614;BME280;51025;37.772;-122.432;2022-07-01T10:43:10;101136.55;;;18.82;32.63
64614;BME280;51025;37.772;-122.432;2022-07-01T10:45:42;101135.94;;;18.26;32.76
64614;BME280;51025;37.772;-122.432;2022-07-01T10:48:20;101135.20;;;18.15;32.85
64614;BME280;51025;37.772;-122.432;2022-07-01T10:50:49;101133.01;;;18.07;32.92
64614;BME280;51025;37.772;-122.432;2022-07-01T10:53:19;101130.12;;;18.58;32.77
64614;BME280;51025;37.772;-122.432;2022-07-01T10:55:49;101136.35;;;18.23;32.74
64614;BME280;51025;37.772;-122.432;2022-07-01T10:58:18;101133.43;;;18.00;32.94
64614;BME280;51025;37.772;-122.432;2022-07-01T11:00:47;101131.47;;;18.64;32.70
64614;BME280;51025;37.772;-122.432;2022-07-01T11:03:20;101133.68;;;18.55;32.81
64614;BME280;51025;37.772;-122.432;2022-07-01T11:05:52;101132.13;;;18.60;32.68
64614;BME280;51025;37.772;-122.432;2022-07-01T11:08:21;101129.47;;;18.51;32.76
64614;BME280;51025;37.772;-122.432;2022-07-01T11:10:54;101125.63;;;18.00;32.82
64614;BME280;51025;37.772;-122.432;2022-07-01T11:13:23;101123.89;;;18.60;32.67
64614;BME280;51025;37.772;-122.432;2022-07-01T11:15:52;101121.26;;;18.47;32.82
64614;BME280;51025;37.772;-122.432;2022-07-01T11:18:22;101124.98;;;18.43;32.88
64614;BME280;51025;37.772;-122.432;2022-07-01T11:20:50;101116.15;;;18.47;32.76
64614;BME280;51025;37.772;-122.432;2022-07-01T11:23:22;101115.18;;;18.41;32.82
64614;BME280;51025;37.772;-122.432;2022-07-01T11:25:50;101119.21;;;18.01;32.77
64614;BME280;51025;37.772;-122.432;2022-07-01T11:28:18;101117.61;;;18.45;32.78
64614;BME280;51025;37.772;-122.432;2022-07-01T11:30:46;101120.40;;;18.40;32.74
64614;BME280;51025;37.772;-122.432;2022-07-01T11:33:15;101122.35;;;18.01;32.79
64614;BME280;51025;37.772;-122.432;2022-07-01T11:35:44;101119.72;;;18.33;32.74
64614;BME280;51025;37.772;-122.432;2022-07-01T11:38:14;101119.15;;;18.43;32.66
64614;BME280;51025;37.772;-122.432;2022-07-01T11:40:43;101111.87;;;18.35;32.79
64614;BME280;51025;37.772;-122.432;2022-07-01T11:43:20;101108.75;;;18.27;32.86
64614;BME280;51025;37.772;-122.432;2022-07-01T11:45:48;101109.51;;;18.23;32.87
64614;BME280;51025;37.772;-122.432;2022-07-01T11:48:39;101111.37;;;18.28;32.87
64614;BME280;51025;37.772;-122.432;2022-07-01T11:51:09;101115.15;;;18.42;32.65
64614;BME280;51025;37.772;-122.432;2022-07-01T11:53:38;101116.78;;;18.30;32.75
64614;BME280;51025;37.772;-122.432;2022-07-01T11:56:07;101114.74;;;18.31;32.74
64614;BME280;51025;37.772;-122.432;2022-07-01T11:58:51;101114.05;;;18.14;32.92
64614;BME280;51025;37.772;-122.432;2022-07-01T12:01:23;101114.70;;;18.20;32.89
64614;BME280;51025;37.772;-122.432;2022-07-01T12:03:52;101117.18;;;18.20;32.83
64614;BME280;51025;37.772;-122.432;2022-07-01T12:06:22;101115.88;;;18.19;32.83
64614;BME280;51025;37.772;-122.432;2022-07-01T12:08:52;101115.35;;;18.22;32.87
64614;BME280;51025;37.772;-122.432;2022-07-01T12:11:21;101113.87;;;17.91;32.71
64614;BME280;51025;37.772;-122.432;2022-07-01T12:13:50;101112.21;;;18.45;32.47
64614;BME280;51025;37.772;-122.432;2022-07-01T12:16:19;101110.39;;;18.46;32.54
64614;BME280;51025;37.772;-122.432;2022-07-01T12:18:57;101111.52;;;18.05;32.53
64614;BME280;51025;37.772;-122.432;2022-07-01T12:21:26;101113.35;;;18.55;32.50
64614;BME280;51025;37.772;-122.432;2022-07-01T12:24:11;101115.77;;;18.50;32.50
64614;BME280;51025;37.772;-122.432;2022-07-01T12:26:50;101121.52;;;18.13;32.37
64614;BME280;51025;37.772;-122.432;2022-07-01T12:29:20;101124.39;;;17.96;32.58
64614;BME280;51025;37.772;-122.432;2022-07-01T12:31:58;101121.51;;;18.46;32.44
64614;BME280;51025;37.772;-122.432;2022-07-01T12:34:39;101128.59;;;18.06;32.41